sensor_id;sensor_type;location;lat;lon;timestamp;P1;durP1;ratioP1;P2;durP2;ratioP2
28762;SDS011;15918;51.270;6.522;2022-08-20T00:01:49;8.93;;;5.43;;
28762;SDS011;15918;51.270;6.522;2022-08-20T00:04:15;6.78;;;5.68;;
28762;SDS011;15918;51.270;6.522;2022-08-20T00:06:41;6.00;;;5.40;;
28762;SDS011;15918;51.270;6.522;2022-08-20T00:09:06;8.40;;;5.93;;
28762;SDS011;15918;51.270;6.522;2022-08-20T00:11:32;8.85;;;6.13;;
28762;SDS011;15918;51.270;6.522;2022-08-20T00:13:59;7.43;;;5.57;;
28762;SDS011;15918;51.270;6.522;2022-08-20T00:16:29;7.75;;;6.15;;
28762;SDS011;15918;51.270;6.522;2022-08-20T00:18:58;9.85;;;6.18;;
28762;SDS011;15918;51.270;6.522;2022-08-20T00:21:24;6.47;;;5.55;;
28762;SDS011;15918;51.270;6.522;2022-08-20T00:23:51;9.00;;;6.22;;
28762;SDS011;15918;51.270;6.522;2022-08-20T00:26:18;10.00;;;5.88;;
28762;SDS011;15918;51.270;6.522;2022-08-20T00:28:45;12.48;;;5.78;;
28762;SDS011;15918;51.270;6.522;2022-08-20T00:31:12;8.85;;;6.65;;
28762;SDS011;15918;51.270;6.522;2022-08-20T00:33:39;9.38;;;6.70;;
28762;SDS011;15918;51.270;6.522;2022-08-20T00:36:05;8.50;;;5.40;;
28762;SDS011;15918;51.270;6.522;2022-08-20T00:38:36;6.15;;;5.55;;
28762;SDS011;15918;51.270;6.522;2022-08-20T00:41:04;6.55;;;5.85;;
28762;SDS011;15918;51.270;6.522;2022-08-20T00:43:35;6.50;;;5.75;;
28762;SDS011;15918;51.270;6.522;2022-08-20T00:46:03;7.53;;;6.45;;
28762;SDS011;15918;51.270;6.522;2022-08-20T00:48:33;9.50;;;6.38;;
28762;SDS011;15918;51.270;6.522;2022-08-20T00:51:06;6.50;;;5.65;;
28762;SDS011;15918;51.270;6.522;2022-08-20T00:53:51;7.80;;;6.80;;
28762;SDS011;15918;51.270;6.522;2022-08-20T00:56:20;8.65;;;6.75;;
28762;SDS011;15918;51.270;6.522;2022-08-20T00:58:46;8.55;;;6.88;;
28762;SDS011;15918;51.270;6.522;2022-08-20T01:01:15;9.63;;;6.88;;
28762;SDS011;15918;51.270;6.522;2022-08-20T01:03:41;9.25;;;6.75;;
28762;SDS011;15918;51.270;6.522;2022-08-20T01:06:06;8.70;;;6.90;;
28762;SDS011;15918;51.270;6.522;2022-08-20T01:08:36;10.18;;;6.47;;
28762;SDS011;15918;51.270;6.522;2022-08-20T01:11:03;7.85;;;6.13;;
28762;SDS011;15918;51.270;6.522;2022-08-20T01:13:40;7.15;;;5.97;;
28762;SDS011;15918;51.270;6.522;2022-08-20T01:16:39;8.25;;;7.07;;
28762;SDS011;15918;51.270;6.522;2022-08-20T01:19:00;8.70;;;6.72;;
28762;SDS011;15918;51.270;6.522;2022-08-20T01:21:26;11.63;;;7.22;;
28762;SDS011;15918;51.270;6.522;2022-08-20T01:23:56;8.15;;;6.40;;
28762;SDS011;15918;51.270;6.522;2022-08-20T01:26:41;8.35;;;6.63;;
28762;SDS011;15918;51.270;6.522;2022-08-20T01:29:11;6.55;;;5.95;;
28762;SDS011;15918;51.270;6.522;2022-08-20T01:31:40;7.70;;;6.22;;
28762;SDS011;15918;51.270;6.522;2022-08-20T01:34:10;9.15;;;6.80;;
28762;SDS011;15918;51.270;6.522;2022-08-20T01:36:39;8.75;;;6.00;;
28762;SDS011;15918;51.270;6.522;2022-08-20T01:39:11;7.13;;;6.43;;
28762;SDS011;15918;51.270;6.522;2022-08-20T01:44:21;7.00;;;6.18;;
28762;SDS011;15918;51.270;6.522;2022-08-20T01:46:48;7.88;;;6.32;;
28762;SDS011;15918;51.270;6.522;2022-08-20T01:49:23;9.52;;;7.05;;
28762;SDS011;15918;51.270;6.522;2022-08-20T01:51:58;8.50;;;7.45;;
28762;SDS011;15918;51.270;6.522;2022-08-20T01:54:26;8.40;;;7.50;;
28762;SDS011;15918;51.270;6.522;2022-08-20T01:56:54;9.50;;;7.72;;
28762;SDS011;15918;51.270;6.522;2022-08-20T01:59:26;11.90;;;8.02;;
28762;SDS011;15918;51.270;6.522;2022-08-20T02:01:52;7.85;;;7.05;;
28762;SDS011;15918;51.270;6.522;2022-08-20T02:04:19;8.82;;;7.63;;
28762;SDS011;15918;51.270;6.522;2022-08-20T02:06:49;9.68;;;8.25;;
28762;SDS011;15918;51.270;6.522;2022-08-20T02:09:18;9.50;;;8.50;;
28762;SDS011;15918;51.270;6.522;2022-08-20T02:11:44;9.73;;;8.23;;
28762;SDS011;15918;51.270;6.522;2022-08-20T02:14:11;9.45;;;7.97;;
28762;SDS011;15918;51.270;6.522;2022-08-20T02:16:40;8.93;;;7.47;;
28762;SDS011;15918;51.270;6.522;2022-08-20T02:19:12;10.50;;;8.10;;
28762;SDS011;15918;51.270;6.522;2022-08-20T02:21:46;10.80;;;8.50;;
28762;SDS011;15918;51.270;6.522;2022-08-20T02:24:15;9.25;;;8.27;;
28762;SDS011;15918;51.270;6.522;2022-08-20T02:26:41;9.73;;;8.65;;
28762;SDS011;15918;51.270;6.522;2022-08-20T02:29:09;10.30;;;8.98;;
28762;SDS011;15918;51.270;6.522;2022-08-20T02:31:37;14.63;;;9.10;;
28762;SDS011;15918;51.270;6.522;2022-08-20T02:34:05;11.52;;;8.52;;
28762;SDS011;15918;51.270;6.522;2022-08-20T02:36:33;10.45;;;9.40;;
28762;SDS011;15918;51.270;6.522;2022-08-20T02:39:01;9.52;;;8.60;;
28762;SDS011;15918;51.270;6.522;2022-08-20T02:41:32;11.63;;;10.15;;
28762;SDS011;15918;51.270;6.522;2022-08-20T02:43:59;10.60;;;9.35;;
28762;SDS011;15918;51.270;6.522;2022-08-20T02:46:24;12.90;;;9.20;;
28762;SDS011;15918;51.270;6.522;2022-08-20T02:48:52;10.27;;;9.15;;
28762;SDS011;15918;51.270;6.522;2022-08-20T02:51:18;12.02;;;10.05;;
28762;SDS011;15918;51.270;6.522;2022-08-20T02:53:44;10.57;;;9.10;;
28762;SDS011;15918;51.270;6.522;2022-08-20T02:56:09;13.50;;;10.80;;
28762;SDS011;15918;51.270;6.522;2022-08-20T02:58:36;12.50;;;10.02;;
28762;SDS011;15918;51.270;6.522;2022-08-20T03:01:04;10.60;;;9.50;;
28762;SDS011;15918;51.270;6.522;2022-08-20T03:03:31;12.40;;;10.00;;
28762;SDS011;15918;51.270;6.522;2022-08-20T03:05:57;13.02;;;9.88;;
28762;SDS011;15918;51.270;6.522;2022-08-20T03:08:24;11.50;;;9.45;;
28762;SDS011;15918;51.270;6.522;2022-08-20T03:10:51;12.20;;;10.55;;
28762;SDS011;15918;51.270;6.522;2022-08-20T03:13:17;11.30;;;10.10;;
28762;SDS011;15918;51.270;6.522;2022-08-20T03:15:45;12.55;;;9.95;;
28762;SDS011;15918;51.270;6.522;2022-08-20T03:18:13;12.32;;;9.75;;
28762;SDS011;15918;51.270;6.522;2022-08-20T03:20:40;12.48;;;10.05;;
28762;SDS011;15918;51.270;6.522;2022-08-20T03:23:05;11.60;;;9.45;;
28762;SDS011;15918;51.270;6.522;2022-08-20T03:25:31;11.13;;;9.93;;
28762;SDS011;15918;51.270;6.522;2022-08-20T03:27:57;12.13;;;9.07;;
28762;SDS011;15918;51.270;6.522;2022-08-20T03:30:24;11.68;;;9.90;;
28762;SDS011;15918;51.270;6.522;2022-08-20T03:32:52;12.63;;;9.95;;
28762;SDS011;15918;51.270;6.522;2022-08-20T03:35:19;13.40;;;9.40;;
28762;SDS011;15918;51.270;6.522;2022-08-20T03:37:46;10.55;;;9.40;;
28762;SDS011;15918;51.270;6.522;2022-08-20T03:40:16;13.63;;;10.20;;
28762;SDS011;15918;51.270;6.522;2022-08-20T03:42:54;11.32;;;8.98;;
28762;SDS011;15918;51.270;6.522;2022-08-20T03:45:20;14.93;;;9.43;;
28762;SDS011;15918;51.270;6.522;2022-08-20T03:47:47;14.20;;;10.70;;
28762;SDS011;15918;51.270;6.522;2022-08-20T03:50:13;13.75;;;10.25;;
28762;SDS011;15918;51.270;6.522;2022-08-20T03:52:39;14.30;;;10.23;;
28762;SDS011;15918;51.270;6.522;2022-08-20T03:55:06;14.65;;;10.27;;
28762;SDS011;15918;51.270;6.522;2022-08-20T03:57:33;12.25;;;9.57;;
28762;SDS011;15918;51.270;6.522;2022-08-20T03:59:59;11.23;;;9.32;;
28762;SDS011;15918;51.270;6.522;2022-08-20T04:02:26;11.18;;;9.40;;
28762;SDS011;15918;51.270;6.522;2022-08-20T04:04:52;10.73;;;9.07;;
28762;SDS011;15918;51.270;6.522;2022-08-20T04:07:19;11.95;;;9.07;;
28762;SDS011;15918;51.270;6.522;2022-08-20T04:09:52;12.25;;;8.63;;
28762;SDS011;15918;51.270;6.522;2022-08-20T04:12:21;9.38;;;8.38;;
28762;SDS011;15918;51.270;6.522;2022-08-20T04:14:48;9.18;;;7.22;;
28762;SDS011;15918;51.270;6.522;2022-08-20T04:17:15;8.55;;;7.45;;
28762;SDS011;15918;51.270;6.522;2022-08-20T04:19:42;7.75;;;6.68;;
28762;SDS011;15918;51.270;6.522;2022-08-20T04:22:08;9.82;;;7.35;;
28762;SDS011;15918;51.270;6.522;2022-08-20T04:24:37;10.63;;;7.07;;
28762;SDS011;15918;51.270;6.522;2022-08-20T04:27:04;7.32;;;6.53;;
28762;SDS011;15918;51.270;6.522;2022-08-20T04:29:30;7.70;;;6.90;;
28762;SDS011;15918;51.270;6.522;2022-08-20T04:31:57;7.32;;;6.63;;
28762;SDS011;15918;51.270;6.522;2022-08-20T04:34:24;7.60;;;6.90;;
28762;SDS011;15918;51.270;6.522;2022-08-20T04:36:49;9.65;;;7.20;;
28762;SDS011;15918;51.270;6.522;2022-08-20T04:39:16;8.27;;;7.03;;
28762;SDS011;15918;51.270;6.522;2022-08-20T04:41:42;9.52;;;7.22;;
28762;SDS011;15918;51.270;6.522;2022-08-20T04:44:09;8.10;;;7.30;;
28762;SDS011;15918;51.270;6.522;2022-08-20T04:46:35;8.05;;;7.25;;
28762;SDS011;15918;51.270;6.522;2022-08-20T04:49:02;9.00;;;7.85;;
28762;SDS011;15918;51.270;6.522;2022-08-20T04:51:29;8.70;;;7.80;;
28762;SDS011;15918;51.270;6.522;2022-08-20T04:53:55;8.65;;;7.30;;
28762;SDS011;15918;51.270;6.522;2022-08-20T04:56:22;10.98;;;8.32;;
28762;SDS011;15918;51.270;6.522;2022-08-20T04:58:50;9.07;;;8.07;;
28762;SDS011;15918;51.270;6.522;2022-08-20T05:01:17;8.05;;;7.28;;
28762;SDS011;15918;51.270;6.522;2022-08-20T05:03:43;7.22;;;6.60;;
28762;SDS011;15918;51.270;6.522;2022-08-20T05:06:11;10.73;;;6.65;;
28762;SDS011;15918;51.270;6.522;2022-08-20T05:08:37;7.75;;;6.63;;
28762;SDS011;15918;51.270;6.522;2022-08-20T05:11:04;7.30;;;6.60;;
28762;SDS011;15918;51.270;6.522;2022-08-20T05:13:31;7.75;;;6.95;;
28762;SDS011;15918;51.270;6.522;2022-08-20T05:15:56;10.48;;;7.70;;
28762;SDS011;15918;51.270;6.522;2022-08-20T05:18:28;10.88;;;7.75;;
28762;SDS011;15918;51.270;6.522;2022-08-20T05:20:57;9.23;;;8.32;;
28762;SDS011;15918;51.270;6.522;2022-08-20T05:23:28;12.20;;;9.43;;
28762;SDS011;15918;51.270;6.522;2022-08-20T05:25:55;9.65;;;8.68;;
28762;SDS011;15918;51.270;6.522;2022-08-20T05:28:27;10.23;;;9.23;;
28762;SDS011;15918;51.270;6.522;2022-08-20T05:30:57;11.52;;;9.75;;
28762;SDS011;15918;51.270;6.522;2022-08-20T05:33:24;12.43;;;11.13;;
28762;SDS011;15918;51.270;6.522;2022-08-20T05:35:51;13.20;;;11.63;;
28762;SDS011;15918;51.270;6.522;2022-08-20T05:38:18;14.02;;;12.50;;
28762;SDS011;15918;51.270;6.522;2022-08-20T05:40:48;14.95;;;13.45;;
28762;SDS011;15918;51.270;6.522;2022-08-20T05:43:14;18.55;;;15.63;;
28762;SDS011;15918;51.270;6.522;2022-08-20T05:45:41;16.58;;;14.77;;
28762;SDS011;15918;51.270;6.522;2022-08-20T05:48:12;19.70;;;17.70;;
28762;SDS011;15918;51.270;6.522;2022-08-20T05:50:40;22.25;;;19.88;;
28762;SDS011;15918;51.270;6.522;2022-08-20T05:53:07;24.73;;;21.52;;
28762;SDS011;15918;51.270;6.522;2022-08-20T05:55:33;23.45;;;20.92;;
28762;SDS011;15918;51.270;6.522;2022-08-20T05:58:02;25.67;;;22.35;;
28762;SDS011;15918;51.270;6.522;2022-08-20T06:00:29;24.98;;;22.38;;
28762;SDS011;15918;51.270;6.522;2022-08-20T06:02:57;30.75;;;25.48;;
28762;SDS011;15918;51.270;6.522;2022-08-20T06:05:41;29.50;;;25.17;;
28762;SDS011;15918;51.270;6.522;2022-08-20T06:08:08;31.55;;;26.75;;
28762;SDS011;15918;51.270;6.522;2022-08-20T06:10:34;30.40;;;27.30;;
28762;SDS011;15918;51.270;6.522;2022-08-20T06:13:01;32.60;;;27.55;;
28762;SDS011;15918;51.270;6.522;2022-08-20T06:15:27;31.20;;;27.95;;
28762;SDS011;15918;51.270;6.522;2022-08-20T06:17:56;32.67;;;28.08;;
28762;SDS011;15918;51.270;6.522;2022-08-20T06:20:22;37.92;;;30.40;;
28762;SDS011;15918;51.270;6.522;2022-08-20T06:22:48;32.63;;;29.13;;
28762;SDS011;15918;51.270;6.522;2022-08-20T06:25:14;31.50;;;28.15;;
28762;SDS011;15918;51.270;6.522;2022-08-20T06:27:40;33.13;;;29.60;;
28762;SDS011;15918;51.270;6.522;2022-08-20T06:30:08;35.90;;;30.73;;
28762;SDS011;15918;51.270;6.522;2022-08-20T06:32:37;31.50;;;28.17;;
28762;SDS011;15918;51.270;6.522;2022-08-20T06:35:03;36.95;;;27.83;;
28762;SDS011;15918;51.270;6.522;2022-08-20T06:37:30;31.02;;;27.77;;
28762;SDS011;15918;51.270;6.522;2022-08-20T06:40:02;30.75;;;27.40;;
28762;SDS011;15918;51.270;6.522;2022-08-20T06:42:29;34.15;;;27.02;;
28762;SDS011;15918;51.270;6.522;2022-08-20T06:44:55;32.92;;;26.63;;
28762;SDS011;15918;51.270;6.522;2022-08-20T06:47:23;33.03;;;26.15;;
28762;SDS011;15918;51.270;6.522;2022-08-20T06:49:49;29.85;;;24.52;;
28762;SDS011;15918;51.270;6.522;2022-08-20T06:52:14;32.80;;;25.52;;
28762;SDS011;15918;51.270;6.522;2022-08-20T06:54:41;27.90;;;24.90;;
28762;SDS011;15918;51.270;6.522;2022-08-20T06:57:07;31.27;;;25.23;;
28762;SDS011;15918;51.270;6.522;2022-08-20T06:59:33;28.88;;;24.23;;
28762;SDS011;15918;51.270;6.522;2022-08-20T07:01:59;31.73;;;24.92;;
28762;SDS011;15918;51.270;6.522;2022-08-20T07:04:25;33.10;;;23.98;;
28762;SDS011;15918;51.270;6.522;2022-08-20T07:06:51;24.90;;;22.25;;
28762;SDS011;15918;51.270;6.522;2022-08-20T07:09:18;24.85;;;21.98;;
28762;SDS011;15918;51.270;6.522;2022-08-20T07:11:44;28.17;;;22.45;;
28762;SDS011;15918;51.270;6.522;2022-08-20T07:14:12;30.70;;;22.35;;
28762;SDS011;15918;51.270;6.522;2022-08-20T07:16:38;24.20;;;20.42;;
28762;SDS011;15918;51.270;6.522;2022-08-20T07:19:04;25.58;;;21.50;;
28762;SDS011;15918;51.270;6.522;2022-08-20T07:21:29;28.08;;;22.85;;
28762;SDS011;15918;51.270;6.522;2022-08-20T07:23:56;29.52;;;22.75;;
28762;SDS011;15918;51.270;6.522;2022-08-20T07:26:21;27.15;;;22.77;;
28762;SDS011;15918;51.270;6.522;2022-08-20T07:28:48;43.05;;;24.35;;
28762;SDS011;15918;51.270;6.522;2022-08-20T07:31:14;32.58;;;23.52;;
28762;SDS011;15918;51.270;6.522;2022-08-20T07:33:59;26.90;;;22.77;;
28762;SDS011;15918;51.270;6.522;2022-08-20T07:36:25;24.85;;;22.20;;
28762;SDS011;15918;51.270;6.522;2022-08-20T07:38:51;35.35;;;22.30;;
28762;SDS011;15918;51.270;6.522;2022-08-20T07:41:17;28.58;;;21.88;;
28762;SDS011;15918;51.270;6.522;2022-08-20T07:43:43;36.53;;;23.25;;
28762;SDS011;15918;51.270;6.522;2022-08-20T07:46:10;35.33;;;23.00;;
28762;SDS011;15918;51.270;6.522;2022-08-20T07:48:41;28.13;;;22.83;;
28762;SDS011;15918;51.270;6.522;2022-08-20T07:51:11;34.22;;;23.10;;
28762;SDS011;15918;51.270;6.522;2022-08-20T07:53:41;34.50;;;24.20;;
28762;SDS011;15918;51.270;6.522;2022-08-20T07:56:09;40.05;;;23.67;;
28762;SDS011;15918;51.270;6.522;2022-08-20T07:58:37;32.25;;;22.00;;
28762;SDS011;15918;51.270;6.522;2022-08-20T08:01:06;31.77;;;20.52;;
28762;SDS011;15918;51.270;6.522;2022-08-20T08:03:34;32.40;;;21.02;;
28762;SDS011;15918;51.270;6.522;2022-08-20T08:06:01;36.40;;;21.80;;
28762;SDS011;15918;51.270;6.522;2022-08-20T08:08:27;31.92;;;20.60;;
28762;SDS011;15918;51.270;6.522;2022-08-20T08:10:57;31.27;;;19.98;;
28762;SDS011;15918;51.270;6.522;2022-08-20T08:13:26;32.03;;;19.92;;
28762;SDS011;15918;51.270;6.522;2022-08-20T08:15:59;30.13;;;19.95;;
28762;SDS011;15918;51.270;6.522;2022-08-20T08:18:29;29.60;;;19.45;;
28762;SDS011;15918;51.270;6.522;2022-08-20T08:21:08;27.98;;;18.77;;
28762;SDS011;15918;51.270;6.522;2022-08-20T08:23:37;24.42;;;17.83;;
28762;SDS011;15918;51.270;6.522;2022-08-20T08:26:09;26.95;;;18.90;;
28762;SDS011;15918;51.270;6.522;2022-08-20T08:28:39;23.05;;;16.50;;
28762;SDS011;15918;51.270;6.522;2022-08-20T08:31:07;23.67;;;17.50;;
28762;SDS011;15918;51.270;6.522;2022-08-20T08:33:33;21.80;;;16.65;;
28762;SDS011;15918;51.270;6.522;2022-08-20T08:36:09;25.70;;;18.23;;
28762;SDS011;15918;51.270;6.522;2022-08-20T08:38:36;30.13;;;19.55;;
28762;SDS011;15918;51.270;6.522;2022-08-20T08:41:46;32.25;;;22.65;;
28762;SDS011;15918;51.270;6.522;2022-08-20T08:43:58;35.17;;;22.90;;
28762;SDS011;15918;51.270;6.522;2022-08-20T08:46:37;34.60;;;23.95;;
28762;SDS011;15918;51.270;6.522;2022-08-20T08:49:05;30.40;;;23.88;;
28762;SDS011;15918;51.270;6.522;2022-08-20T08:51:39;33.08;;;24.50;;
28762;SDS011;15918;51.270;6.522;2022-08-20T08:54:16;38.67;;;25.88;;
28762;SDS011;15918;51.270;6.522;2022-08-20T08:56:45;39.83;;;25.48;;
28762;SDS011;15918;51.270;6.522;2022-08-20T08:59:11;33.67;;;23.23;;
28762;SDS011;15918;51.270;6.522;2022-08-20T09:01:42;35.67;;;21.50;;
28762;SDS011;15918;51.270;6.522;2022-08-20T09:04:13;27.95;;;18.77;;
28762;SDS011;15918;51.270;6.522;2022-08-20T09:06:41;39.15;;;20.50;;
28762;SDS011;15918;51.270;6.522;2022-08-20T09:09:18;32.50;;;18.85;;
28762;SDS011;15918;51.270;6.522;2022-08-20T09:11:48;41.22;;;18.60;;
28762;SDS011;15918;51.270;6.522;2022-08-20T09:14:16;28.90;;;19.88;;
28762;SDS011;15918;51.270;6.522;2022-08-20T09:16:42;26.70;;;18.13;;
28762;SDS011;15918;51.270;6.522;2022-08-20T09:19:08;28.70;;;18.88;;
28762;SDS011;15918;51.270;6.522;2022-08-20T09:21:34;37.45;;;20.60;;
28762;SDS011;15918;51.270;6.522;2022-08-20T09:23:59;31.95;;;19.75;;
28762;SDS011;15918;51.270;6.522;2022-08-20T09:26:25;38.70;;;21.60;;
28762;SDS011;15918;51.270;6.522;2022-08-20T09:28:51;32.00;;;20.02;;
28762;SDS011;15918;51.270;6.522;2022-08-20T09:31:16;31.58;;;18.92;;
28762;SDS011;15918;51.270;6.522;2022-08-20T09:33:42;34.97;;;21.08;;
28762;SDS011;15918;51.270;6.522;2022-08-20T09:36:07;42.60;;;23.55;;
28762;SDS011;15918;51.270;6.522;2022-08-20T09:38:33;36.55;;;21.88;;
28762;SDS011;15918;51.270;6.522;2022-08-20T09:40:59;34.75;;;22.13;;
28762;SDS011;15918;51.270;6.522;2022-08-20T09:43:24;38.05;;;21.75;;
28762;SDS011;15918;51.270;6.522;2022-08-20T09:45:50;40.20;;;21.95;;
28762;SDS011;15918;51.270;6.522;2022-08-20T09:48:16;42.95;;;24.35;;
28762;SDS011;15918;51.270;6.522;2022-08-20T09:50:46;38.38;;;23.90;;
28762;SDS011;15918;51.270;6.522;2022-08-20T09:53:13;35.03;;;24.95;;
28762;SDS011;15918;51.270;6.522;2022-08-20T10:02:23;34.78;;;24.35;;
28762;SDS011;15918;51.270;6.522;2022-08-20T10:04:49;35.35;;;24.58;;
28762;SDS011;15918;51.270;6.522;2022-08-20T10:07:15;41.78;;;27.70;;
28762;SDS011;15918;51.270;6.522;2022-08-20T10:09:41;37.20;;;25.50;;
28762;SDS011;15918;51.270;6.522;2022-08-20T10:12:06;34.67;;;25.33;;
28762;SDS011;15918;51.270;6.522;2022-08-20T10:14:32;35.95;;;25.02;;
28762;SDS011;15918;51.270;6.522;2022-08-20T10:16:58;33.13;;;24.38;;
28762;SDS011;15918;51.270;6.522;2022-08-20T10:19:25;34.85;;;24.42;;
28762;SDS011;15918;51.270;6.522;2022-08-20T10:21:52;37.10;;;23.60;;
28762;SDS011;15918;51.270;6.522;2022-08-20T10:24:19;34.53;;;24.38;;
28762;SDS011;15918;51.270;6.522;2022-08-20T10:26:46;32.00;;;23.45;;
28762;SDS011;15918;51.270;6.522;2022-08-20T10:29:12;33.42;;;23.23;;
28762;SDS011;15918;51.270;6.522;2022-08-20T10:31:38;33.20;;;21.00;;
28762;SDS011;15918;51.270;6.522;2022-08-20T10:34:04;27.40;;;19.63;;
28762;SDS011;15918;51.270;6.522;2022-08-20T10:36:30;35.97;;;21.83;;
28762;SDS011;15918;51.270;6.522;2022-08-20T10:38:55;29.40;;;20.48;;
28762;SDS011;15918;51.270;6.522;2022-08-20T10:41:21;31.27;;;20.52;;
28762;SDS011;15918;51.270;6.522;2022-08-20T10:43:47;25.20;;;19.15;;
28762;SDS011;15918;51.270;6.522;2022-08-20T10:46:12;29.45;;;18.80;;
28762;SDS011;15918;51.270;6.522;2022-08-20T10:48:38;34.00;;;20.67;;
28762;SDS011;15918;51.270;6.522;2022-08-20T10:51:04;27.15;;;19.40;;
28762;SDS011;15918;51.270;6.522;2022-08-20T10:53:30;29.33;;;20.52;;
28762;SDS011;15918;51.270;6.522;2022-08-20T10:55:56;30.13;;;19.48;;
28762;SDS011;15918;51.270;6.522;2022-08-20T10:58:22;30.40;;;20.73;;
28762;SDS011;15918;51.270;6.522;2022-08-20T11:00:48;33.38;;;20.55;;
28762;SDS011;15918;51.270;6.522;2022-08-20T11:03:14;32.55;;;22.08;;
28762;SDS011;15918;51.270;6.522;2022-08-20T11:05:40;35.15;;;21.58;;
28762;SDS011;15918;51.270;6.522;2022-08-20T11:08:05;32.42;;;22.33;;
28762;SDS011;15918;51.270;6.522;2022-08-20T11:10:32;32.67;;;23.13;;
28762;SDS011;15918;51.270;6.522;2022-08-20T11:12:59;26.80;;;21.90;;
28762;SDS011;15918;51.270;6.522;2022-08-20T11:15:26;29.85;;;23.52;;
28762;SDS011;15918;51.270;6.522;2022-08-20T11:17:51;33.42;;;23.30;;
28762;SDS011;15918;51.270;6.522;2022-08-20T11:20:18;31.27;;;24.50;;
28762;SDS011;15918;51.270;6.522;2022-08-20T11:22:45;29.48;;;24.17;;
28762;SDS011;15918;51.270;6.522;2022-08-20T11:25:11;30.35;;;23.55;;
28762;SDS011;15918;51.270;6.522;2022-08-20T11:27:38;30.13;;;22.65;;
28762;SDS011;15918;51.270;6.522;2022-08-20T11:30:06;31.48;;;22.95;;
28762;SDS011;15918;51.270;6.522;2022-08-20T11:32:34;25.95;;;21.92;;
28762;SDS011;15918;51.270;6.522;2022-08-20T11:35:00;24.92;;;20.85;;
28762;SDS011;15918;51.270;6.522;2022-08-20T11:37:25;21.05;;;18.50;;
28762;SDS011;15918;51.270;6.522;2022-08-20T11:39:51;25.75;;;19.67;;
28762;SDS011;15918;51.270;6.522;2022-08-20T11:42:17;22.40;;;19.33;;
28762;SDS011;15918;51.270;6.522;2022-08-20T11:44:43;24.20;;;19.83;;
28762;SDS011;15918;51.270;6.522;2022-08-20T11:47:09;24.33;;;20.05;;
28762;SDS011;15918;51.270;6.522;2022-08-20T11:50:03;25.67;;;20.05;;
28762;SDS011;15918;51.270;6.522;2022-08-20T11:52:33;23.90;;;18.73;;
28762;SDS011;15918;51.270;6.522;2022-08-20T11:54:59;26.40;;;19.08;;
28762;SDS011;15918;51.270;6.522;2022-08-20T11:57:26;24.60;;;19.38;;
28762;SDS011;15918;51.270;6.522;2022-08-20T11:59:54;23.35;;;16.90;;
28762;SDS011;15918;51.270;6.522;2022-08-20T12:02:21;23.30;;;16.98;;
28762;SDS011;15918;51.270;6.522;2022-08-20T12:04:47;21.65;;;16.95;;
28762;SDS011;15918;51.270;6.522;2022-08-20T12:07:14;21.88;;;15.57;;
28762;SDS011;15918;51.270;6.522;2022-08-20T12:09:42;27.27;;;17.55;;
28762;SDS011;15918;51.270;6.522;2022-08-20T12:12:08;24.92;;;16.10;;
28762;SDS011;15918;51.270;6.522;2022-08-20T12:14:34;24.48;;;16.50;;
28762;SDS011;15918;51.270;6.522;2022-08-20T12:17:11;20.63;;;16.15;;
28762;SDS011;15918;51.270;6.522;2022-08-20T12:19:41;24.92;;;16.02;;
28762;SDS011;15918;51.270;6.522;2022-08-20T12:22:07;20.60;;;15.18;;
28762;SDS011;15918;51.270;6.522;2022-08-20T12:24:34;24.77;;;14.35;;
28762;SDS011;15918;51.270;6.522;2022-08-20T12:30:02;28.33;;;14.25;;
28762;SDS011;15918;51.270;6.522;2022-08-20T12:32:31;22.00;;;12.85;;
28762;SDS011;15918;51.270;6.522;2022-08-20T12:34:57;23.08;;;13.55;;
28762;SDS011;15918;51.270;6.522;2022-08-20T12:37:25;26.08;;;13.25;;
28762;SDS011;15918;51.270;6.522;2022-08-20T12:39:53;20.77;;;12.88;;
28762;SDS011;15918;51.270;6.522;2022-08-20T12:42:20;23.40;;;12.73;;
28762;SDS011;15918;51.270;6.522;2022-08-20T12:44:48;20.38;;;12.55;;
28762;SDS011;15918;51.270;6.522;2022-08-20T12:49:49;18.88;;;12.05;;
28762;SDS011;15918;51.270;6.522;2022-08-20T12:52:20;21.67;;;12.35;;
28762;SDS011;15918;51.270;6.522;2022-08-20T12:54:46;20.85;;;11.55;;
28762;SDS011;15918;51.270;6.522;2022-08-20T12:57:23;14.38;;;11.25;;
28762;SDS011;15918;51.270;6.522;2022-08-20T13:00:04;19.55;;;12.02;;
28762;SDS011;15918;51.270;6.522;2022-08-20T13:02:32;21.13;;;11.00;;
28762;SDS011;15918;51.270;6.522;2022-08-20T13:04:58;19.33;;;11.32;;
28762;SDS011;15918;51.270;6.522;2022-08-20T13:07:23;21.00;;;11.30;;
28762;SDS011;15918;51.270;6.522;2022-08-20T13:09:49;13.43;;;10.85;;
28762;SDS011;15918;51.270;6.522;2022-08-20T13:12:15;18.60;;;10.52;;
28762;SDS011;15918;51.270;6.522;2022-08-20T13:14:41;16.23;;;10.30;;
28762;SDS011;15918;51.270;6.522;2022-08-20T13:17:07;16.42;;;9.93;;
28762;SDS011;15918;51.270;6.522;2022-08-20T13:19:34;15.85;;;9.80;;
28762;SDS011;15918;51.270;6.522;2022-08-20T13:22:04;17.27;;;9.50;;
28762;SDS011;15918;51.270;6.522;2022-08-20T13:24:29;15.57;;;9.32;;
28762;SDS011;15918;51.270;6.522;2022-08-20T13:27:05;13.10;;;9.57;;
28762;SDS011;15918;51.270;6.522;2022-08-20T13:29:34;15.80;;;10.02;;
28762;SDS011;15918;51.270;6.522;2022-08-20T13:32:00;15.68;;;9.55;;
28762;SDS011;15918;51.270;6.522;2022-08-20T13:34:26;18.92;;;10.60;;
28762;SDS011;15918;51.270;6.522;2022-08-20T13:36:52;18.58;;;9.73;;
28762;SDS011;15918;51.270;6.522;2022-08-20T13:39:19;16.27;;;9.90;;
28762;SDS011;15918;51.270;6.522;2022-08-20T13:41:46;17.35;;;9.52;;
28762;SDS011;15918;51.270;6.522;2022-08-20T13:44:13;13.90;;;10.13;;
28762;SDS011;15918;51.270;6.522;2022-08-20T13:46:38;17.88;;;9.63;;
28762;SDS011;15918;51.270;6.522;2022-08-20T13:49:04;16.67;;;9.45;;
28762;SDS011;15918;51.270;6.522;2022-08-20T13:51:30;17.70;;;10.07;;
28762;SDS011;15918;51.270;6.522;2022-08-20T13:53:55;19.08;;;10.63;;
28762;SDS011;15918;51.270;6.522;2022-08-20T13:56:21;17.20;;;10.48;;
28762;SDS011;15918;51.270;6.522;2022-08-20T13:58:47;17.92;;;10.40;;
28762;SDS011;15918;51.270;6.522;2022-08-20T14:01:12;20.17;;;10.15;;
28762;SDS011;15918;51.270;6.522;2022-08-20T14:03:38;14.93;;;9.60;;
28762;SDS011;15918;51.270;6.522;2022-08-20T14:06:04;16.75;;;9.23;;
28762;SDS011;15918;51.270;6.522;2022-08-20T14:08:31;12.88;;;8.65;;
28762;SDS011;15918;51.270;6.522;2022-08-20T14:10:56;15.95;;;10.18;;
28762;SDS011;15918;51.270;6.522;2022-08-20T14:13:23;17.08;;;10.25;;
28762;SDS011;15918;51.270;6.522;2022-08-20T14:15:50;19.85;;;10.52;;
28762;SDS011;15918;51.270;6.522;2022-08-20T14:18:17;16.75;;;9.63;;
28762;SDS011;15918;51.270;6.522;2022-08-20T14:20:43;17.55;;;8.95;;
28762;SDS011;15918;51.270;6.522;2022-08-20T14:23:09;17.00;;;10.10;;
28762;SDS011;15918;51.270;6.522;2022-08-20T14:25:35;12.82;;;9.60;;
28762;SDS011;15918;51.270;6.522;2022-08-20T14:28:07;16.15;;;8.90;;
28762;SDS011;15918;51.270;6.522;2022-08-20T14:30:37;14.98;;;9.02;;
28762;SDS011;15918;51.270;6.522;2022-08-20T14:33:03;13.88;;;8.90;;
28762;SDS011;15918;51.270;6.522;2022-08-20T14:35:29;13.73;;;8.70;;
28762;SDS011;15918;51.270;6.522;2022-08-20T14:37:55;15.77;;;9.45;;
28762;SDS011;15918;51.270;6.522;2022-08-20T14:40:22;17.92;;;9.38;;
28762;SDS011;15918;51.270;6.522;2022-08-20T14:42:48;16.38;;;9.35;;
28762;SDS011;15918;51.270;6.522;2022-08-20T14:45:14;21.23;;;12.60;;
28762;SDS011;15918;51.270;6.522;2022-08-20T14:47:42;20.40;;;11.68;;